Time;durP1;ratioP1;P1;durP2;ratioP2;P2;SDS_P1;SDS_P2;PMS_P1;PMS_P2;Temp;Humidity;BMP_temperature;BMP_pressure;BME280_temperature;BME280_humidity;BME280_pressure;Samples;Min_cycle;Max_cycle;Signal;HPM_P1;HPM_P2
2021/12/05 00:22:54;;;;;;;26.60;13.52;;;;;;;;;;5062984;28;20492;-78
2021/12/05 00:25:26;;;;;;;27.20;12.95;;;;;;;;;;5022029;28;20080;-77
2021/12/05 00:28:42;;;;;;;30.30;13.52;;;;;;;;;;5027587;28;20109;-76
2021/12/05 00:34:01;;;;;;;23.58;12.68;;;;;;;;;;5041092;28;20044;-77
2021/12/05 00:53:00;;;;;;;20.55;10.65;;;;;;;;;;5056230;28;21383;-77
2021/12/05 01:04:30;;;;;;;21.05;10.57;;;;;;;;;;5051619;28;20340;-76
2021/12/05 01:11:18;;;;;;;14.38;9.27;;;;;;;;;;5049680;28;20135;-77
2021/12/05 01:14:08;;;;;;;14.57;9.52;;;;;;;;;;5045679;28;20032;-77
2021/12/05 01:16:34;;;;;;;20.55;9.65;;;;;;;;;;5044165;28;20060;-77
2021/12/05 01:19:01;;;;;;;17.77;8.55;;;;;;;;;;5026385;28;20051;-77
2021/12/05 01:21:27;;;;;;;16.98;9.60;;;;;;;;;;5048888;28;21500;-77
2021/12/05 01:24:11;;;;;;;16.33;10.02;;;;;;;;;;5081734;27;20052;-76
2021/12/05 01:29:25;;;;;;;13.93;8.65;;;;;;;;;;5039598;27;20055;-77
2021/12/05 02:00:29;;;;;;;18.35;9.00;;;;;;;;;;5058968;27;20054;-76
2021/12/05 02:07:40;;;;;;;14.63;8.38;;;;;;;;;;5082844;28;20569;-77
2021/12/05 02:16:34;;;;;;;18.33;9.55;;;;;;;;;;5070915;27;20126;-76
2021/12/05 02:30:59;;;;;;;20.05;9.20;;;;;;;;;;5067350;28;20056;-77
2021/12/05 02:35:53;;;;;;;18.55;9.82;;;;;;;;;;5074352;28;20414;-77
2021/12/05 02:41:04;;;;;;;21.10;11.52;;;;;;;;;;5035248;28;20097;-76
2021/12/05 02:43:37;;;;;;;21.27;10.98;;;;;;;;;;5067781;28;20178;-77
2021/12/05 02:46:05;;;;;;;20.50;10.85;;;;;;;;;;5017426;28;20040;-77
2021/12/05 02:48:33;;;;;;;19.67;11.70;;;;;;;;;;5034560;28;20084;-77
2021/12/05 02:51:00;;;;;;;24.25;12.73;;;;;;;;;;5066558;28;20041;-76
2021/12/05 02:53:46;;;;;;;21.95;11.65;;;;;;;;;;5048537;28;20483;-77
2021/12/05 02:56:13;;;;;;;27.60;13.30;;;;;;;;;;5053000;28;20455;-76
2021/12/05 02:58:50;;;;;;;24.33;13.60;;;;;;;;;;5049704;28;20060;-76
2021/12/05 03:01:28;;;;;;;24.80;14.85;;;;;;;;;;5032313;28;22452;-77
2021/12/05 03:03:54;;;;;;;24.08;13.90;;;;;;;;;;5065762;28;20044;-77
2021/12/05 03:06:23;;;;;;;28.48;15.25;;;;;;;;;;5054644;28;20047;-77
2021/12/05 03:08:51;;;;;;;23.73;15.30;;;;;;;;;;5034696;28;20127;-77
2021/12/05 03:11:17;;;;;;;22.40;14.73;;;;;;;;;;5081042;28;21123;-77
2021/12/05 03:13:43;;;;;;;29.48;15.57;;;;;;;;;;5048062;28;20452;-77
2021/12/05 03:16:10;;;;;;;28.98;15.35;;;;;;;;;;5033586;28;20126;-77
2021/12/05 03:18:37;;;;;;;27.45;15.90;;;;;;;;;;5019250;28;20052;-77
2021/12/05 03:21:04;;;;;;;29.25;16.98;;;;;;;;;;5043724;28;20674;-77
2021/12/05 03:23:31;;;;;;;30.17;17.13;;;;;;;;;;5051681;28;20060;-77
2021/12/05 03:25:57;;;;;;;33.38;18.38;;;;;;;;;;5054721;28;20061;-76
2021/12/05 03:28:24;;;;;;;32.05;18.05;;;;;;;;;;5038675;28;20056;-77
2021/12/05 03:30:50;;;;;;;32.17;18.38;;;;;;;;;;5074678;28;20562;-77
2021/12/05 03:33:16;;;;;;;33.08;18.63;;;;;;;;;;5067514;28;20433;-77
2021/12/05 03:35:42;;;;;;;35.17;19.33;;;;;;;;;;5097780;27;20528;-77
2021/12/05 03:38:08;;;;;;;37.70;18.73;;;;;;;;;;5051370;27;20187;-77
2021/12/05 03:40:34;;;;;;;35.22;18.88;;;;;;;;;;5073099;27;20039;-76
2021/12/05 03:43:01;;;;;;;30.13;18.17;;;;;;;;;;5038986;28;20462;-77
2021/12/05 03:45:30;;;;;;;28.05;17.42;;;;;;;;;;5058743;28;20339;-77
2021/12/05 03:47:59;;;;;;;35.70;18.98;;;;;;;;;;5079407;27;20451;-80
2021/12/05 03:50:25;;;;;;;;;;;;;;;;;;5077798;28;20043;-80
2021/12/05 03:52:51;;;;;;;34.33;17.98;;;;;;;;;;5060333;28;19919;-80
2021/12/05 03:55:17;;;;;;;34.25;17.70;;;;;;;;;;5061547;28;20501;-80
2021/12/05 03:57:43;;;;;;;34.67;18.45;;;;;;;;;;5060920;28;20048;-80
2021/12/05 04:00:29;;;;;;;31.77;17.73;;;;;;;;;;5036298;28;20047;-80
2021/12/05 04:02:56;;;;;;;30.77;16.48;;;;;;;;;;5043064;27;20050;-80
2021/12/05 04:05:22;;;;;;;26.58;16.38;;;;;;;;;;5060201;27;20141;-80
2021/12/05 04:07:48;;;;;;;32.35;18.00;;;;;;;;;;5088762;28;20040;-80
2021/12/05 04:10:15;;;;;;;24.33;15.70;;;;;;;;;;5058970;28;21355;-80
2021/12/05 04:12:41;;;;;;;32.75;17.17;;;;;;;;;;5073181;28;20086;-80
2021/12/05 04:15:07;;;;;;;32.30;16.70;;;;;;;;;;5042642;28;20391;-80
2021/12/05 04:17:33;;;;;;;28.27;15.32;;;;;;;;;;5070271;28;20050;-80
2021/12/05 04:19:59;;;;;;;29.55;15.18;;;;;;;;;;5065129;28;20135;-79
2021/12/05 04:22:25;;;;;;;29.95;13.85;;;;;;;;;;5057956;28;20525;-80
2021/12/05 04:24:52;;;;;;;30.05;14.07;;;;;;;;;;5045953;28;20060;-80
2021/12/05 04:27:18;;;;;;;27.73;13.93;;;;;;;;;;5072309;28;20516;-78
2021/12/05 04:29:44;;;;;;;28.85;14.63;;;;;;;;;;5042804;28;20129;-80
2021/12/05 04:32:10;;;;;;;29.85;12.93;;;;;;;;;;5028567;28;20628;-80
2021/12/05 04:34:36;;;;;;;28.60;14.38;;;;;;;;;;5048910;28;20150;-80
2021/12/05 04:37:03;;;;;;;24.45;13.18;;;;;;;;;;5029279;28;20040;-79
2021/12/05 04:39:29;;;;;;;22.33;12.38;;;;;;;;;;5069452;28;20052;-79
2021/12/05 04:41:55;;;;;;;27.13;13.20;;;;;;;;;;5037590;28;20463;-80
2021/12/05 04:44:22;;;;;;;21.98;11.75;;;;;;;;;;5027084;28;20060;-80
2021/12/05 04:46:48;;;;;;;23.65;13.13;;;;;;;;;;5048457;28;20052;-80
2021/12/05 04:49:14;;;;;;;24.45;11.77;;;;;;;;;;5030901;28;20621;-80
2021/12/05 04:51:41;;;;;;;21.38;12.48;;;;;;;;;;5048376;28;20044;-80
2021/12/05 04:54:07;;;;;;;26.63;12.02;;;;;;;;;;5012106;28;20114;-80
2021/12/05 04:56:33;;;;;;;20.70;12.07;;;;;;;;;;5071783;28;20040;-80
2021/12/05 04:58:59;;;;;;;23.02;11.50;;;;;;;;;;5071771;28;20109;-80
2021/12/05 05:01:26;;;;;;;25.08;11.70;;;;;;;;;;5071660;28;20055;-79
2021/12/05 05:03:52;;;;;;;27.00;12.23;;;;;;;;;;5022907;28;20506;-80
2021/12/05 05:06:19;;;;;;;22.55;11.07;;;;;;;;;;5021016;28;20036;-80
2021/12/05 05:08:47;;;;;;;17.88;10.13;;;;;;;;;;5039701;28;20133;-80
2021/12/05 05:11:13;;;;;;;20.92;10.25;;;;;;;;;;5045929;28;20089;-80
2021/12/05 05:13:39;;;;;;;24.73;10.98;;;;;;;;;;5048000;28;20129;-80
2021/12/05 05:16:06;;;;;;;20.75;10.70;;;;;;;;;;5031598;28;20062;-80
2021/12/05 05:18:42;;;;;;;21.00;11.02;;;;;;;;;;5034544;28;20797;-80
2021/12/05 05:24:09;;;;;;;22.13;10.93;;;;;;;;;;5065629;28;20131;-80
2021/12/05 05:48:32;;;;;;;27.40;9.40;;;;;;;;;;5083689;27;23941;-80
2021/12/05 05:50:58;;;;;;;24.98;9.65;;;;;;;;;;5043694;27;20039;-80
2021/12/05 05:53:24;;;;;;;19.88;9.65;;;;;;;;;;5078129;28;20054;-79
2021/12/05 05:55:51;;;;;;;22.25;9.13;;;;;;;;;;5092389;27;20374;-79
2021/12/05 05:58:21;;;;;;;21.63;8.80;;;;;;;;;;5082928;27;20054;-80
2021/12/05 06:01:02;;;;;;;19.77;9.48;;;;;;;;;;5072753;28;20178;-79
2021/12/05 06:03:29;;;;;;;21.83;9.38;;;;;;;;;;5093744;27;20592;-79
2021/12/05 06:05:56;;;;;;;19.77;9.05;;;;;;;;;;5072519;28;20108;-80
2021/12/05 06:08:24;;;;;;;26.70;10.02;;;;;;;;;;5051890;28;20062;-80
2021/12/05 06:10:51;;;;;;;23.50;9.38;;;;;;;;;;5036190;28;20042;-80
2021/12/05 06:13:18;;;;;;;18.75;9.52;;;;;;;;;;5050160;28;20780;-80
2021/12/05 06:15:45;;;;;;;19.40;8.63;;;;;;;;;;5059621;28;20134;-80
2021/12/05 06:18:11;;;;;;;29.23;10.55;;;;;;;;;;5085061;28;20392;-80
2021/12/05 06:20:37;;;;;;;26.98;9.13;;;;;;;;;;5087055;28;20089;-79
2021/12/05 06:23:03;;;;;;;20.75;9.23;;;;;;;;;;5085020;28;20058;-80
2021/12/05 06:25:31;;;;;;;22.27;9.27;;;;;;;;;;5086193;28;20051;-80
2021/12/05 06:28:01;;;;;;;21.23;8.68;;;;;;;;;;5085365;28;20067;-80
2021/12/05 06:46:24;;;;;;;21.42;9.65;;;;;;;;;;5055833;28;20036;-80
2021/12/05 06:48:50;;;;;;;29.10;10.60;;;;;;;;;;5057701;28;20035;-79
2021/12/05 06:51:18;;;;;;;21.00;9.98;;;;;;;;;;5061187;28;20053;-79
2021/12/05 06:53:44;;;;;;;23.88;9.85;;;;;;;;;;5068088;28;20106;-79
2021/12/05 06:56:10;;;;;;;20.55;8.80;;;;;;;;;;5090251;27;20493;-79
2021/12/05 06:58:37;;;;;;;22.02;9.93;;;;;;;;;;5079003;28;20039;-79
2021/12/05 07:01:04;;;;;;;21.33;9.90;;;;;;;;;;5091105;28;20059;-79
2021/12/05 07:03:30;;;;;;;21.45;10.05;;;;;;;;;;5060750;28;20051;-79
2021/12/05 07:06:04;;;;;;;23.77;10.57;;;;;;;;;;5075463;28;20043;-79
2021/12/05 07:08:34;;;;;;;22.70;10.52;;;;;;;;;;5078378;28;20043;-79
2021/12/05 07:11:08;;;;;;;21.05;9.75;;;;;;;;;;5105070;27;20035;-80
2021/12/05 07:21:39;;;;;;;22.27;11.30;;;;;;;;;;5081228;28;20054;-79
2021/12/05 07:40:45;;;;;;;26.77;12.32;;;;;;;;;;5084924;28;20517;-81
2021/12/05 07:43:11;;;;;;;28.95;12.13;;;;;;;;;;5044952;28;20566;-80
2021/12/05 07:45:46;;;;;;;29.13;12.52;;;;;;;;;;5062553;28;20151;-80
2021/12/05 07:48:16;;;;;;;22.63;12.15;;;;;;;;;;5080141;28;20552;-80
2021/12/05 07:53:41;;;;;;;29.83;12.82;;;;;;;;;;5065257;28;20086;-81
2021/12/05 07:56:14;;;;;;;27.05;12.63;;;;;;;;;;5080365;27;20402;-80
2021/12/05 07:59:10;;;;;;;29.83;11.75;;;;;;;;;;5064786;28;20050;-79
2021/12/05 08:15:28;;;;;;;25.20;13.40;;;;;;;;;;5064502;28;20394;-79
2021/12/05 08:17:57;;;;;;;32.88;13.45;;;;;;;;;;5046271;28;20058;-81
2021/12/05 08:20:27;;;;;;;26.92;13.82;;;;;;;;;;5059729;28;20395;-81
2021/12/05 08:22:53;;;;;;;26.35;12.98;;;;;;;;;;5048996;28;20051;-81
2021/12/05 08:25:24;;;;;;;29.52;13.23;;;;;;;;;;5061517;28;20066;-80
2021/12/05 08:27:55;;;;;;;27.13;12.68;;;;;;;;;;5063729;28;20086;-80
2021/12/05 08:30:29;;;;;;;27.08;13.27;;;;;;;;;;5047795;28;20059;-80
2021/12/05 08:41:03;;;;;;;21.95;13.68;;;;;;;;;;5065627;28;20118;-80
2021/12/05 09:22:47;;;;;;;31.45;14.25;;;;;;;;;;5080336;28;20043;-79
2021/12/05 09:24:42;;;;;;;27.15;13.55;;;;;;;;;;5053242;28;20108;-80
2021/12/05 09:30:28;;;;;;;23.50;13.07;;;;;;;;;;5068193;28;20059;-80
2021/12/05 10:03:33;;;;;;;22.40;11.48;;;;;;;;;;5077614;28;20040;-80
2021/12/05 10:11:27;;;;;;;22.10;11.18;;;;;;;;;;5091381;28;20071;-80
2021/12/05 10:16:54;;;;;;;22.55;11.48;;;;;;;;;;5098732;27;20689;-80
2021/12/05 10:38:32;;;;;;;18.77;10.55;;;;;;;;;;5019403;28;20048;-79
2021/12/05 10:43:56;;;;;;;19.35;10.68;;;;;;;;;;4996016;28;20063;-79
2021/12/05 10:46:26;;;;;;;18.15;10.60;;;;;;;;;;5033274;28;20046;-80
2021/12/05 10:49:00;;;;;;;19.13;12.00;;;;;;;;;;4996296;28;20068;-80
2021/12/05 10:51:29;;;;;;;24.92;15.93;;;;;;;;;;5072850;28;20485;-80
2021/12/05 10:53:56;;;;;;;23.63;16.15;;;;;;;;;;5036359;28;20079;-80
2021/12/05 10:56:51;;;;;;;21.77;12.32;;;;;;;;;;5046748;28;20040;-80
2021/12/05 10:59:32;;;;;;;21.27;11.00;;;;;;;;;;5035977;28;20697;-80
2021/12/05 11:02:03;;;;;;;20.13;11.68;;;;;;;;;;5038953;28;20046;-80
2021/12/05 11:04:32;;;;;;;18.83;12.80;;;;;;;;;;5024537;28;20078;-81
2021/12/05 11:07:17;;;;;;;16.88;12.95;;;;;;;;;;5033243;28;20109;-78
2021/12/05 11:09:52;;;;;;;18.85;12.48;;;;;;;;;;5055764;28;20063;-80
2021/12/05 11:12:22;;;;;;;20.90;10.90;;;;;;;;;;5031529;28;21454;-80
2021/12/05 11:14:57;;;;;;;18.63;11.70;;;;;;;;;;5022755;28;20050;-80
2021/12/05 11:17:26;;;;;;;15.90;10.45;;;;;;;;;;5054805;28;20040;-80
2021/12/05 11:19:53;;;;;;;19.10;10.23;;;;;;;;;;5059856;28;20181;-80
2021/12/05 11:22:23;;;;;;;14.90;10.68;;;;;;;;;;5033546;28;20422;-80
2021/12/05 11:24:51;;;;;;;15.65;9.75;;;;;;;;;;5040159;28;23158;-81
2021/12/05 11:27:24;;;;;;;16.30;9.52;;;;;;;;;;5041614;28;20086;-80
2021/12/05 11:30:10;;;;;;;17.80;9.80;;;;;;;;;;5083730;28;20492;-80
2021/12/05 11:33:03;;;;;;;13.90;9.32;;;;;;;;;;5091267;28;20047;-84
2021/12/05 11:35:44;;;;;;;20.63;10.75;;;;;;;;;;5096204;28;20528;-80
2021/12/05 11:38:23;;;;;;;17.00;9.38;;;;;;;;;;5068317;28;20082;-80
2021/12/05 11:41:02;;;;;;;18.27;10.27;;;;;;;;;;5043383;28;20378;-80
2021/12/05 11:43:37;;;;;;;20.17;10.32;;;;;;;;;;4999323;28;20053;-79
2021/12/05 11:46:14;;;;;;;18.48;10.80;;;;;;;;;;5028930;28;20106;-80
2021/12/05 11:48:47;;;;;;;15.20;8.65;;;;;;;;;;5009972;28;20041;-80
2021/12/05 11:51:37;;;;;;;17.08;9.85;;;;;;;;;;5025003;28;20044;-80
2021/12/05 11:54:17;;;;;;;16.13;9.80;;;;;;;;;;5000624;28;20040;-80
2021/12/05 11:57:02;;;;;;;14.05;8.90;;;;;;;;;;5015201;28;20088;-80
2021/12/05 11:59:28;;;;;;;14.65;8.88;;;;;;;;;;5026861;28;20068;-80
2021/12/05 12:02:02;;;;;;;14.70;9.38;;;;;;;;;;5016172;28;20044;-80
2021/12/05 12:04:43;;;;;;;14.25;9.35;;;;;;;;;;5015164;28;20055;-80
2021/12/05 12:07:26;;;;;;;16.88;9.85;;;;;;;;;;5029509;28;20139;-80
2021/12/05 12:09:57;;;;;;;13.07;9.32;;;;;;;;;;5015992;28;20056;-80
2021/12/05 12:12:23;;;;;;;13.60;9.65;;;;;;;;;;5036800;28;20036;-79
2021/12/05 12:14:58;;;;;;;14.05;9.70;;;;;;;;;;5068714;27;20146;-80
2021/12/05 12:17:26;;;;;;;12.38;9.15;;;;;;;;;;5052615;27;20055;-80
2021/12/05 12:19:54;;;;;;;16.05;10.27;;;;;;;;;;5057588;27;20055;-80
2021/12/05 12:22:21;;;;;;;16.70;9.02;;;;;;;;;;5072816;28;20488;-79
2021/12/05 12:25:04;;;;;;;18.40;8.88;;;;;;;;;;5061223;28;20043;-79
2021/12/05 12:27:31;;;;;;;15.63;9.57;;;;;;;;;;5041456;28;20396;-80
2021/12/05 12:30:01;;;;;;;16.90;10.43;;;;;;;;;;5040728;27;20500;-80
2021/12/05 12:32:31;;;;;;;17.42;9.23;;;;;;;;;;5045016;27;20389;-81
2021/12/05 12:35:08;;;;;;;15.65;9.90;;;;;;;;;;5059187;28;20645;-81
2021/12/05 12:37:54;;;;;;;16.65;10.07;;;;;;;;;;5060343;27;20039;-81
2021/12/05 12:40:32;;;;;;;11.35;9.00;;;;;;;;;;5114330;27;20545;-85
2021/12/05 12:42:59;;;;;;;14.32;9.10;;;;;;;;;;5086194;27;20110;-82
2021/12/05 12:45:25;;;;;;;13.02;9.32;;;;;;;;;;5061694;27;20047;-83
2021/12/05 12:47:51;;;;;;;16.13;9.13;;;;;;;;;;5064621;28;20187;-83
2021/12/05 12:50:37;;;;;;;17.13;11.00;;;;;;;;;;5073833;28;20055;-81
2021/12/05 12:53:05;;;;;;;14.80;10.70;;;;;;;;;;5043989;28;20486;-82
2021/12/05 12:55:32;;;;;;;14.93;10.35;;;;;;;;;;5081598;28;20043;-82
2021/12/05 12:58:07;;;;;;;16.85;10.57;;;;;;;;;;5063087;28;20048;-88
2021/12/05 13:00:37;;;;;;;21.02;10.82;;;;;;;;;;5058624;27;20686;-85
2021/12/05 13:03:26;;;;;;;17.60;10.48;;;;;;;;;;5040474;28;20090;-86
2021/12/05 13:11:25;;;;;;;18.10;10.77;;;;;;;;;;5065067;28;20088;-82
2021/12/05 13:14:04;;;;;;;16.10;9.98;;;;;;;;;;5074880;28;20077;-86
2021/12/05 13:16:36;;;;;;;16.92;9.82;;;;;;;;;;5079341;27;20047;-86
2021/12/05 13:19:13;;;;;;;14.30;9.68;;;;;;;;;;5058179;28;20043;-84
2021/12/05 13:21:42;;;;;;;11.48;9.15;;;;;;;;;;5081764;28;20039;-86
2021/12/05 13:24:23;;;;;;;16.63;9.70;;;;;;;;;;5045110;28;20044;-85
2021/12/05 13:26:49;;;;;;;9.90;8.82;;;;;;;;;;5068796;28;20042;-84
2021/12/05 13:29:20;;;;;;;11.70;8.73;;;;;;;;;;5094200;28;20479;-86
2021/12/05 13:31:46;;;;;;;11.77;7.40;;;;;;;;;;5050906;28;20043;-85
2021/12/05 13:34:22;;;;;;;10.05;6.50;;;;;;;;;;5091500;27;20043;-85
2021/12/05 13:37:13;;;;;;;9.20;6.72;;;;;;;;;;5074984;28;20050;-85
2021/12/05 13:39:44;;;;;;;10.05;6.20;;;;;;;;;;5067057;28;20089;-83
2021/12/05 13:42:10;;;;;;;10.07;5.70;;;;;;;;;;5038641;28;20488;-83
2021/12/05 13:44:55;;;;;;;17.13;11.82;;;;;;;;;;5058541;28;20066;-85
2021/12/05 13:47:27;;;;;;;26.20;17.55;;;;;;;;;;5067300;28;20096;-83
2021/12/05 13:49:53;;;;;;;24.85;18.30;;;;;;;;;;5094558;28;20088;-81
2021/12/05 13:52:29;;;;;;;17.75;11.93;;;;;;;;;;5037482;28;20594;-79
2021/12/05 13:55:23;;;;;;;19.92;12.75;;;;;;;;;;5061507;28;20367;-80
2021/12/05 13:58:08;;;;;;;11.45;8.93;;;;;;;;;;5074523;28;20047;-85
2021/12/05 14:00:58;;;;;;;12.68;9.60;;;;;;;;;;5105223;27;20044;-85
2021/12/05 14:03:44;;;;;;;11.55;9.13;;;;;;;;;;5081931;27;20051;-85
2021/12/05 14:06:29;;;;;;;14.30;9.68;;;;;;;;;;5059365;28;20083;-83
2021/12/05 14:08:56;;;;;;;10.25;7.13;;;;;;;;;;5056729;28;20122;-83
2021/12/05 14:11:26;;;;;;;10.80;5.60;;;;;;;;;;5060805;28;20052;-84
2021/12/05 14:13:52;;;;;;;6.07;5.03;;;;;;;;;;5094530;27;20467;-83
2021/12/05 14:16:18;;;;;;;4.93;4.32;;;;;;;;;;5074777;28;20096;-84
2021/12/05 14:18:45;;;;;;;6.38;5.25;;;;;;;;;;5096255;28;20042;-83
2021/12/05 14:21:14;;;;;;;7.25;5.28;;;;;;;;;;5089631;28;20050;-83
2021/12/05 14:23:40;;;;;;;10.05;5.80;;;;;;;;;;5096570;28;20374;-83
2021/12/05 14:26:17;;;;;;;6.93;5.40;;;;;;;;;;5095839;27;20047;-83
2021/12/05 14:28:44;;;;;;;7.38;4.95;;;;;;;;;;5042670;28;20138;-82
2021/12/05 14:31:10;;;;;;;7.55;5.22;;;;;;;;;;5056882;28;20155;-83
2021/12/05 14:33:46;;;;;;;9.55;6.47;;;;;;;;;;5059347;28;20116;-80
2021/12/05 14:36:23;;;;;;;8.40;6.88;;;;;;;;;;5044281;28;20878;-80
2021/12/05 14:38:58;;;;;;;11.80;7.85;;;;;;;;;;5026943;28;20044;-80
2021/12/05 14:41:31;;;;;;;11.73;8.65;;;;;;;;;;5025217;28;20052;-80
2021/12/05 14:43:57;;;;;;;17.17;9.38;;;;;;;;;;5028447;28;20143;-80
2021/12/05 14:46:26;;;;;;;11.05;8.07;;;;;;;;;;5027215;28;20398;-80
2021/12/05 14:49:10;;;;;;;12.57;9.23;;;;;;;;;;5027750;28;20177;-80
2021/12/05 14:51:38;;;;;;;15.13;9.05;;;;;;;;;;5059610;28;20128;-79
2021/12/05 14:54:04;;;;;;;12.05;9.43;;;;;;;;;;5068502;28;20036;-80
2021/12/05 14:56:31;;;;;;;18.00;11.02;;;;;;;;;;5049751;28;21101;-78
2021/12/05 14:59:01;;;;;;;13.27;10.73;;;;;;;;;;5071918;28;20101;-80
2021/12/05 15:01:28;;;;;;;14.68;11.05;;;;;;;;;;5052259;28;20056;-80
2021/12/05 15:03:54;;;;;;;15.77;12.10;;;;;;;;;;5072354;28;20143;-82
2021/12/05 15:06:20;;;;;;;18.35;13.15;;;;;;;;;;5035324;28;20044;-80
2021/12/05 15:08:46;;;;;;;18.25;12.02;;;;;;;;;;5074434;28;20040;-78
2021/12/05 15:11:12;;;;;;;19.45;12.85;;;;;;;;;;5068287;28;20555;-80
2021/12/05 15:13:40;;;;;;;18.55;12.43;;;;;;;;;;5069029;28;20112;-81
2021/12/05 15:16:06;;;;;;;20.30;12.45;;;;;;;;;;5047776;28;20052;-80
2021/12/05 15:18:34;;;;;;;20.20;12.77;;;;;;;;;;5077738;28;20071;-80
2021/12/05 15:21:00;;;;;;;18.73;13.02;;;;;;;;;;5049528;28;20583;-81
2021/12/05 15:23:27;;;;;;;21.65;14.60;;;;;;;;;;5058952;28;20040;-84
2021/12/05 15:25:53;;;;;;;16.38;12.75;;;;;;;;;;5030323;28;20087;-80
2021/12/05 15:28:19;;;;;;;18.17;11.93;;;;;;;;;;5061152;28;20336;-84
2021/12/05 15:30:46;;;;;;;17.23;12.43;;;;;;;;;;5062052;28;20226;-84
2021/12/05 15:33:13;;;;;;;21.70;12.45;;;;;;;;;;5040786;28;21343;-84
2021/12/05 15:35:39;;;;;;;20.38;13.02;;;;;;;;;;5046339;28;20036;-84
2021/12/05 15:38:21;;;;;;;17.15;12.88;;;;;;;;;;5040545;28;20193;-84
2021/12/05 15:40:47;;;;;;;24.88;12.85;;;;;;;;;;5024795;28;20048;-86
2021/12/05 15:43:18;;;;;;;19.17;12.85;;;;;;;;;;5027290;28;20044;-84
2021/12/05 15:45:48;;;;;;;18.63;13.32;;;;;;;;;;5047106;28;20556;-85
2021/12/05 15:48:29;;;;;;;19.83;12.68;;;;;;;;;;5027744;28;20806;-86
2021/12/05 15:50:55;;;;;;;14.50;12.02;;;;;;;;;;5045211;28;20112;-86
2021/12/05 15:53:21;;;;;;;18.75;12.70;;;;;;;;;;5024411;28;20549;-85
2021/12/05 15:56:05;;;;;;;19.42;12.63;;;;;;;;;;5083021;28;20123;-85
2021/12/05 15:58:44;;;;;;;19.42;12.50;;;;;;;;;;5049486;28;20044;-85
2021/12/05 16:01:12;;;;;;;;;;;;;;;;;;5056047;28;20052;-84
2021/12/05 16:03:48;;;;;;;18.35;12.38;;;;;;;;;;5061340;28;20277;-85
2021/12/05 16:06:15;;;;;;;14.65;12.55;;;;;;;;;;5040334;28;20142;-82
2021/12/05 16:08:41;;;;;;;17.45;12.35;;;;;;;;;;5060602;28;20449;-81
2021/12/05 16:11:11;;;;;;;21.55;13.15;;;;;;;;;;5056095;28;20426;-80
2021/12/05 16:13:41;;;;;;;24.17;13.98;;;;;;;;;;5072425;28;20515;-81
2021/12/05 16:16:12;;;;;;;20.27;13.77;;;;;;;;;;5053387;28;20040;-80
2021/12/05 16:18:38;;;;;;;20.05;13.98;;;;;;;;;;5057302;28;20048;-81
2021/12/05 16:21:13;;;;;;;21.25;13.95;;;;;;;;;;5039935;28;20102;-85
2021/12/05 16:23:39;;;;;;;16.15;12.98;;;;;;;;;;5060921;28;20407;-85
2021/12/05 16:26:05;;;;;;;18.98;13.43;;;;;;;;;;5054690;28;20359;-85
2021/12/05 16:28:38;;;;;;;19.70;14.98;;;;;;;;;;5083092;27;20189;-83
2021/12/05 16:31:20;;;;;;;20.20;14.07;;;;;;;;;;5076931;27;20047;-82
2021/12/05 16:33:48;;;;;;;19.17;14.05;;;;;;;;;;5044158;27;20055;-84
2021/12/05 16:36:14;;;;;;;19.40;14.60;;;;;;;;;;5035434;28;20071;-83
2021/12/05 16:38:44;;;;;;;21.27;15.05;;;;;;;;;;5063276;27;21384;-83
2021/12/05 16:41:13;;;;;;;22.20;14.27;;;;;;;;;;5089066;27;20083;-81
2021/12/05 16:43:45;;;;;;;20.02;14.40;;;;;;;;;;5078168;27;20719;-83
2021/12/05 16:46:13;;;;;;;19.40;14.10;;;;;;;;;;5092621;27;20095;-84
2021/12/05 16:48:39;;;;;;;20.93;15.47;;;;;;;;;;5085997;27;20039;-81
2021/12/05 16:51:11;;;;;;;26.92;15.40;;;;;;;;;;5089051;27;20801;-81
2021/12/05 16:53:46;;;;;;;20.83;14.88;;;;;;;;;;5097857;27;20041;-81
2021/12/05 16:56:14;;;;;;;25.73;16.25;;;;;;;;;;5062938;27;20039;-82
2021/12/05 16:58:42;;;;;;;29.25;17.20;;;;;;;;;;5060784;28;20771;-81
2021/12/05 17:01:13;;;;;;;28.45;17.35;;;;;;;;;;5092429;27;20055;-81
2021/12/05 17:03:40;;;;;;;22.63;16.40;;;;;;;;;;5068715;28;20048;-81
2021/12/05 17:06:10;;;;;;;28.88;17.40;;;;;;;;;;5075327;28;20123;-81
2021/12/05 17:08:40;;;;;;;23.85;17.05;;;;;;;;;;5080854;27;20493;-81
2021/12/05 17:11:11;;;;;;;27.65;18.77;;;;;;;;;;5074747;28;20047;-81
2021/12/05 17:13:38;;;;;;;29.73;17.40;;;;;;;;;;5080543;27;20137;-82
2021/12/05 17:16:11;;;;;;;27.65;17.90;;;;;;;;;;5071847;27;20413;-81
2021/12/05 17:18:42;;;;;;;29.33;19.30;;;;;;;;;;5076893;27;20039;-81
2021/12/05 17:21:12;;;;;;;32.90;20.23;;;;;;;;;;5091658;27;20082;-81
2021/12/05 17:23:50;;;;;;;29.48;19.20;;;;;;;;;;5096769;27;20386;-82
2021/12/05 17:26:34;;;;;;;33.20;19.83;;;;;;;;;;5078043;27;20063;-81
2021/12/05 17:29:20;;;;;;;30.17;20.15;;;;;;;;;;5086700;27;20055;-81
2021/12/05 17:31:49;;;;;;;31.10;21.27;;;;;;;;;;5077865;28;20035;-82
2021/12/05 17:34:19;;;;;;;31.10;19.58;;;;;;;;;;5053795;28;20087;-82
2021/12/05 17:36:57;;;;;;;35.13;22.00;;;;;;;;;;5036214;28;20051;-83
2021/12/05 17:39:26;;;;;;;35.58;22.30;;;;;;;;;;5057918;28;20088;-83
2021/12/05 17:41:53;;;;;;;34.50;22.38;;;;;;;;;;5018088;28;21200;-83
2021/12/05 17:44:19;;;;;;;38.55;21.52;;;;;;;;;;5047699;28;20050;-84
2021/12/05 17:46:46;;;;;;;30.65;21.92;;;;;;;;;;5046245;28;20702;-84
2021/12/05 17:49:12;;;;;;;35.13;22.00;;;;;;;;;;5044300;28;20128;-83
2021/12/05 17:51:40;;;;;;;38.22;23.98;;;;;;;;;;5056391;28;20524;-83
2021/12/05 17:54:07;;;;;;;42.15;24.05;;;;;;;;;;5033933;28;20104;-84
2021/12/05 17:56:39;;;;;;;37.42;25.00;;;;;;;;;;5073567;28;20052;-83
2021/12/05 17:59:24;;;;;;;39.85;24.50;;;;;;;;;;5054119;28;20039;-83
2021/12/05 18:04:35;;;;;;;43.25;24.77;;;;;;;;;;5073512;28;20083;-83
2021/12/05 18:07:01;;;;;;;41.03;26.08;;;;;;;;;;5049367;28;20545;-83
2021/12/05 18:09:27;;;;;;;37.38;24.90;;;;;;;;;;5057572;28;20473;-83
2021/12/05 18:11:54;;;;;;;36.28;24.50;;;;;;;;;;5056137;28;20036;-83
2021/12/05 18:14:20;;;;;;;41.20;26.13;;;;;;;;;;5066614;28;20048;-83
2021/12/05 18:16:46;;;;;;;36.17;24.70;;;;;;;;;;5034133;28;20394;-83
2021/12/05 18:19:13;;;;;;;36.20;25.00;;;;;;;;;;5069726;28;20508;-83
2021/12/05 18:21:39;;;;;;;41.28;24.23;;;;;;;;;;5027328;28;20040;-83
2021/12/05 18:24:06;;;;;;;34.50;24.77;;;;;;;;;;5071484;28;20375;-83
2021/12/05 18:26:32;;;;;;;35.28;24.30;;;;;;;;;;5054596;28;20545;-83
2021/12/05 18:28:58;;;;;;;35.03;24.02;;;;;;;;;;5070119;28;20052;-83
2021/12/05 18:31:26;;;;;;;41.33;25.08;;;;;;;;;;5072609;28;20036;-83
2021/12/05 18:33:53;;;;;;;40.08;25.35;;;;;;;;;;5037161;28;20052;-83
2021/12/05 18:36:20;;;;;;;43.57;25.50;;;;;;;;;;5050223;28;21007;-83
2021/12/05 18:38:47;;;;;;;40.00;24.50;;;;;;;;;;5074926;28;21672;-83
2021/12/05 18:41:15;;;;;;;40.40;24.00;;;;;;;;;;5018079;28;20052;-87
2021/12/05 18:43:51;;;;;;;41.25;24.65;;;;;;;;;;5039997;28;20044;-85
2021/12/05 18:46:17;;;;;;;34.55;24.63;;;;;;;;;;5016151;28;20066;-84
2021/12/05 18:48:46;;;;;;;35.15;23.88;;;;;;;;;;5038994;28;20147;-84
2021/12/05 18:51:13;;;;;;;31.42;21.58;;;;;;;;;;5023683;28;20075;-86
2021/12/05 18:53:39;;;;;;;29.90;22.35;;;;;;;;;;5062210;28;20101;-83
2021/12/05 18:56:05;;;;;;;34.30;22.00;;;;;;;;;;5059155;28;20048;-85
2021/12/05 18:58:33;;;;;;;32.58;22.25;;;;;;;;;;5044978;28;20036;-86
2021/12/05 19:06:55;;;;;;;32.10;22.20;;;;;;;;;;5064611;28;20154;-86
2021/12/05 19:12:07;;;;;;;32.20;21.95;;;;;;;;;;5055811;28;20043;-85
2021/12/05 19:14:34;;;;;;;34.10;22.05;;;;;;;;;;5077734;28;20729;-85
2021/12/05 19:17:02;;;;;;;32.70;22.10;;;;;;;;;;5056471;28;20186;-86
2021/12/05 19:19:28;;;;;;;31.90;22.10;;;;;;;;;;5074975;28;20080;-85
2021/12/05 19:21:54;;;;;;;33.72;22.45;;;;;;;;;;5025760;28;20078;-86
2021/12/05 19:24:21;;;;;;;32.40;21.80;;;;;;;;;;5043322;28;20048;-85
2021/12/05 19:26:47;;;;;;;30.20;20.92;;;;;;;;;;5059718;28;20167;-85
2021/12/05 19:29:20;;;;;;;32.78;22.13;;;;;;;;;;5062581;28;20567;-87
2021/12/05 19:32:05;;;;;;;37.30;22.23;;;;;;;;;;5043611;27;20039;-86
2021/12/05 19:34:31;;;;;;;37.35;23.48;;;;;;;;;;5064982;28;20128;-87
2021/12/05 19:44:39;;;;;;;34.78;23.10;;;;;;;;;;4988504;28;20057;-87
2021/12/05 19:47:07;;;;;;;33.92;22.58;;;;;;;;;;4990200;28;20038;-84
2021/12/05 19:53:14;;;;;;;34.08;21.40;;;;;;;;;;4994084;28;20045;-85
2021/12/05 19:56:11;;;;;;;33.00;22.05;;;;;;;;;;5033760;27;20063;-85
2021/12/05 19:58:38;;;;;;;34.20;23.02;;;;;;;;;;5060495;27;20073;-86
2021/12/05 20:01:05;;;;;;;34.05;22.48;;;;;;;;;;5039884;27;20672;-85
2021/12/05 20:03:32;;;;;;;30.23;21.45;;;;;;;;;;5056993;28;20049;-83
2021/12/05 20:05:58;;;;;;;28.58;20.08;;;;;;;;;;5055189;27;20570;-85
2021/12/05 20:08:24;;;;;;;30.48;21.63;;;;;;;;;;5055017;28;20490;-84
2021/12/05 20:10:51;;;;;;;29.25;20.73;;;;;;;;;;5055029;27;20036;-84
2021/12/05 20:13:26;;;;;;;30.20;20.55;;;;;;;;;;5069384;28;20130;-84
2021/12/05 20:15:53;;;;;;;28.08;19.98;;;;;;;;;;5078748;28;20439;-84